Flight Track Log - Related Links

Times and Time Zones

All times are in EDT time to prevent confusion due to time zone crossing. See the AWI3778 flight status page for this flight to view local times or setup timezone preferences in your user account.

Time Position Orientation Groundspeed Altitude Reporting Facility
EDT Latitude Longitude Course Direction KTS MPH feet Rate Location/Type
Sat 03:47:40 PM 30.5153 -81.6458 68° East 164 189 1,700  Level Jacksonville Center
Sat 03:48:18 PM 30.5400 -81.6192 43° Northeast 213 245 2,600 1,592 Climbing Jacksonville Center
Sat 03:49:18 PM 30.5958 -81.5628 41° Northeast 268 308 4,300 2,150 Climbing Jacksonville Center
Sat 03:50:00 PM 30.7542 -81.3833 44° Northeast  Level FlightAware Approximate
Sat 03:50:18 PM 30.6556 -81.5042 40° Northeast 282 325 6,900  Level Jacksonville Center
Sat 03:51:00 PM 30.8277 -81.3167 33° Northeast  Level FlightAware Approximate
Sat 03:51:18 PM 30.7175 -81.4403 42° Northeast 296 341 9,300  Level Jacksonville Center
Sat 03:52:00 PM 30.9000 -81.2633 19° North  Level FlightAware Approximate
Sat 03:52:19 PM 30.7836 -81.3717 42° Northeast 350 403 10,600  Level Jacksonville Center
Sat 03:53:18 PM 30.8600 -81.3003 39° Northeast 350 403 12,000 1,462 Climbing Jacksonville Center
Sat 03:54:18 PM 30.9556 -81.2550 22° Northeast 350 403 13,500 1,488 Climbing Jacksonville Center
Sat 03:55:19 PM 31.0597 -81.2531 North 358 412 15,000 1,339 Climbing Jacksonville Center
Sat 03:56:19 PM 31.1703 -81.2464 North 379 436 16,200 1,210 Climbing Jacksonville Center
Sat 03:57:18 PM 31.2767 -81.2397 North 384 442 17,400 908 Climbing Jacksonville Center
Sat 03:58:18 PM 31.3769 -81.2331 North 389 448 18,000 650 Climbing Jacksonville Center
Sat 03:59:18 PM 31.4867 -81.1628 29° Northeast 400 460 18,700 650 Climbing Jacksonville Center
Sat 04:00:18 PM 31.5817 -81.0903 33° Northeast 408 470 19,300 650 Climbing Jacksonville Center
Sat 04:01:18 PM 31.6706 -81.0203 34° Northeast 414 476 20,000 645 Climbing Jacksonville Center
Sat 04:02:19 PM 31.7756 -80.9375 34° Northeast 414 476 20,600 600 Climbing Jacksonville Center
Sat 04:03:18 PM 31.8664 -80.8672 33° Northeast 414 476 21,200 655 Climbing Jacksonville Center
Sat 04:04:18 PM 31.9736 -80.7839 33° Northeast 414 476 21,900 595 Climbing Jacksonville Center
Sat 04:05:19 PM 32.0703 -80.7058 34° Northeast 414 476 22,400 500 Climbing Jacksonville Center
Sat 04:06:18 PM 32.1569 -80.6375 34° Northeast 419 482 22,900 504 Climbing Jacksonville Center
Sat 04:07:18 PM 32.2536 -80.5589 35° Northeast 419 482 23,400 500 Climbing Jacksonville Center
Sat 04:08:18 PM 32.3522 -80.4778 35° Northeast 419 482 23,900 496 Climbing Jacksonville Center
Sat 04:09:19 PM 32.4508 -80.3986 34° Northeast 419 482 24,400 496 Climbing Jacksonville Center
Sat 04:10:19 PM 32.5517 -80.3197 33° Northeast 419 482 24,900 500 Climbing Jacksonville Center
Sat 04:11:19 PM 32.6503 -80.2378 35° Northeast 419 482 25,400 500 Climbing Jacksonville Center
Sat 04:12:19 PM 32.7486 -80.1558 35° Northeast 424 488 25,900 500 Climbing Jacksonville Center
Sat 04:13:19 PM 32.8469 -80.0764 34° Northeast 424 488 26,400 600 Climbing Jacksonville Center
Sat 04:14:19 PM 32.9686 -80.0081 25° Northeast 429 494 27,100 700 Climbing Jacksonville Center
Sat 04:15:19 PM 33.0847 -79.9672 16° North 429 494 27,800 706 Climbing Jacksonville Center
Sat 04:16:18 PM 33.1942 -79.9189 20° North 424 488 28,500 605 Climbing Jacksonville Center
Sat 04:17:18 PM 33.2992 -79.8583 26° Northeast 419 482 29,000 496 Climbing Jacksonville Center
Sat 04:18:19 PM 33.4039 -79.7950 27° Northeast 414 476 29,500 496 Climbing Jacksonville Center
Sat 04:19:19 PM 33.5089 -79.7289 28° Northeast 420 483 30,000 500 Climbing Jacksonville Center
Sat 04:20:19 PM 33.6156 -79.6653 26° Northeast 420 483 30,500 500 Climbing Jacksonville Center
Sat 04:21:19 PM 33.7206 -79.6017 27° Northeast 420 483 31,000 250 Climbing Jacksonville Center
Sat 04:22:19 PM 33.8253 -79.5378 27° Northeast 420 483 31,000  Level Jacksonville Center
Sat 04:23:18 PM 33.9319 -79.4711 27° Northeast 420 483 31,000  Level Jacksonville Center
Sat 04:24:19 PM 34.0386 -79.4092 26° Northeast 420 483 31,000  Level Jacksonville Center
Sat 04:25:18 PM 34.1453 -79.3422 27° Northeast 420 483 31,000  Level Jacksonville Center
Sat 04:27:05 PM 34.3294 -79.2283 27° Northeast 451 519 31,000  Level Washington Center
Sat 04:28:04 PM 34.4397 -79.1653 25° Northeast 446 513 31,000  Level Washington Center
Sat 04:29:04 PM 34.5522 -79.0994 26° Northeast 446 513 31,000  Level Washington Center
Sat 04:30:05 PM 34.6606 -79.0361 26° Northeast 441 507 31,000  Level Washington Center
Sat 04:31:05 PM 34.7708 -78.9725 25° Northeast 435 501 31,000  Level Washington Center
Sat 04:32:05 PM 34.8853 -78.9064 25° Northeast 435 501 31,000  Level Washington Center
Sat 04:33:06 PM 34.9978 -78.8400 26° Northeast 435 501 31,000  Level Washington Center
Sat 04:34:06 PM 35.1100 -78.7758 25° Northeast 430 495 31,000  Level Washington Center
Sat 04:35:05 PM 35.2225 -78.7092 26° Northeast 430 495 31,000  Level Washington Center
Sat 04:36:06 PM 35.3325 -78.6447 26° Northeast 430 495 31,000  Level Washington Center
Sat 04:37:06 PM 35.4597 -78.5681 26° Northeast 438 504 31,000  Level Washington Center
Sat 04:38:04 PM 35.5614 -78.5078 26° Northeast 443 510 31,000  Level Washington Center
Sat 04:39:06 PM 35.6906 -78.4333 25° Northeast 453 521 31,000  Level Washington Center
Sat 04:40:06 PM 35.8047 -78.3658 26° Northeast 453 521 31,000  Level Washington Center
Sat 04:41:06 PM 35.9189 -78.2978 26° Northeast 453 521 31,000  Level Washington Center
Sat 04:42:06 PM 36.0311 -78.2272 27° Northeast 453 521 31,000  Level Washington Center
Sat 04:43:04 PM 36.1453 -78.1589 26° Northeast 453 521 31,000 -403 Level Washington Center
Sat 04:44:05 PM 36.2572 -78.0931 25° Northeast 453 521 30,200 -908 Descending Washington Center
Sat 04:45:03 PM 36.3714 -78.0219 27° Northeast 453 521 29,200 -958 Descending Washington Center
Sat 04:46:04 PM 36.4853 -77.9531 26° Northeast 453 521 28,300 -942 Descending Washington Center
Sat 04:47:04 PM 36.5972 -77.8867 25° Northeast 453 521 27,300 -639 Descending Washington Center
Sat 04:48:06 PM 36.7153 -77.8281 22° Northeast 453 521 27,000 -149 Descending Washington Center
Sat 04:49:05 PM 36.8308 -77.7794 19° North 441 507 27,000  Level Washington Center
Sat 04:50:06 PM 36.9464 -77.7308 19° North 435 501 27,000  Level Washington Center
Sat 04:51:04 PM 37.0600 -77.6844 18° North 430 495 27,000  Level Washington Center
Sat 04:52:04 PM 37.1733 -77.6353 19° North 430 495 27,000 -149 Level Washington Center
Sat 04:53:05 PM 37.2889 -77.5889 18° North 425 489 26,700 -1,180 Descending Washington Center
Sat 04:54:06 PM 37.4067 -77.5397 18° North 430 495 24,600 -2,033 Descending Washington Center
Sat 04:55:06 PM 37.5242 -77.4878 19° North 430 495 22,600 -2,017 Descending Washington Center
Sat 04:56:05 PM 37.6397 -77.4381 19° North 430 495 20,600 -1,900 Descending Washington Center
Sat 04:57:06 PM 37.7467 -77.3933 18° North 425 489 18,800 -1,736 Descending Washington Center
Sat 04:58:06 PM 37.8517 -77.3486 19° North 407 468 17,100 -1,729 Descending Washington Center
Sat 04:59:04 PM 37.9525 -77.3036 19° North 396 456 15,400 -1,664 Descending Washington Center
Sat 05:00:05 PM 38.0531 -77.2636 17° North 385 443 13,800 -1,489 Descending Washington Center
Sat 05:01:17 PM 38.1517 -77.2183 20° North 380 437 12,100 -1,579 Descending Washington Center
Sat 05:02:18 PM 38.2567 -77.1703 20° North 368 423 10,300 -1,041 Descending Washington Center
Sat 05:03:18 PM 38.3614 -77.1461 10° North 354 407 10,000 -154 Descending Washington Center
Sat 05:04:15 PM 38.4575 -77.1242 10° North 349 402 10,000  Level Washington Center
Sat 05:05:16 PM 38.5536 -77.1022 10° North 349 402 10,000  Level Washington Center
Sat 05:06:18 PM 38.6497 -77.0803 10° North 349 402 10,000 -350 Level Washington Center
Sat 05:07:16 PM 38.7356 -77.0661 North 334 384 9,300 -1,322 Descending Washington Center
Sat 05:08:16 PM 38.8039 -77.0967 341° North 293 337 7,400 -2,156 Descending Washington Center
Sat 05:09:24 PM 38.8667 -77.1667 319° Northwest 236 272 4,700 -1,875 Descending Potomac TRACON
Sat 05:10:24 PM 38.9000 -77.2167 311° West 211 243 3,400 -1,000 Descending Potomac TRACON
Sat 05:11:24 PM 38.9500 -77.1833 27° Northeast 200 230 2,700 -750 Descending Potomac TRACON
Sat 05:12:24 PM 38.9167 -77.1167 123° Southeast 192 221 1,900 -900 Descending Potomac TRACON
Sat 05:13:24 PM 38.9000 -77.0667 113° Southeast 157 181 900 -1,000 Descending Potomac TRACON

Login

Don't have an account? Register now (free) for customized features, flight alerts, and more!